Time;durP1;ratioP1;P1;durP2;ratioP2;P2;SDS_P1;SDS_P2;PMS_P1;PMS_P2;Temp;Humidity;BMP_temperature;BMP_pressure;BME280_temperature;BME280_humidity;BME280_pressure;Samples;Min_cycle;Max_cycle;Signal;HPM_P1;HPM_P2
2023/04/10 00:00:16;;;;;;;;;;;;;;;6.31;97.47;93527.81;5022371;28;19939;-38
2023/04/10 00:02:43;;;;;;;;;;;;;;;6.22;99.09;93534.41;5028412;28;19925;-38
2023/04/10 00:05:09;;;;;;;;;;;;;;;6.17;98.96;93526.25;5027327;28;19913;-38
2023/04/10 00:07:34;;;;;;;;;;;;;;;6.30;98.73;93526.34;5028106;28;19931;-38
2023/04/10 00:09:59;;;;;;;;;;;;;;;6.27;98.03;93528.09;5030559;28;19914;-38
2023/04/10 00:12:25;;;;;;;;;;;;;;;6.27;97.86;93517.13;5028288;28;19917;-38
2023/04/10 00:14:50;;;;;;;;;;;;;;;6.17;97.09;93518.03;5029400;28;19917;-38
2023/04/10 00:17:15;;;;;;;;;;;;;;;6.11;97.79;93516.09;5025800;28;20195;-38
2023/04/10 00:19:40;;;;;;;;;;;;;;;6.00;98.88;93510.75;5026518;28;19917;-38
2023/04/10 00:22:06;;;;;;;;;;;;;;;5.90;97.26;93515.13;5028570;28;19947;-37
2023/04/10 00:24:31;;;;;;;;;;;;;;;5.93;97.79;93510.63;5027549;28;19928;-38
2023/04/10 00:26:56;;;;;;;;;;;;;;;5.92;98.37;93506.38;5026063;28;19921;-38
2023/04/10 00:29:22;;;;;;;;;;;;;;;5.89;98.62;93501.94;5029544;28;19925;-37
2023/04/10 00:31:48;;;;;;;;;;;;;;;5.99;98.26;93500.31;5025477;28;20436;-37
2023/04/10 00:34:14;;;;;;;;;;;;;;;5.91;98.65;93496.69;5023071;28;20413;-37
2023/04/10 00:36:39;;;;;;;;;;;;;;;5.86;99.95;93492.00;5029390;28;19924;-38
2023/04/10 00:39:06;;;;;;;;;;;;;;;5.95;99.12;93486.91;5022678;28;19914;-38
2023/04/10 00:41:31;;;;;;;;;;;;;;;6.06;97.61;93486.75;5028067;28;19917;-38
2023/04/10 00:43:56;;;;;;;;;;;;;;;6.15;96.85;93480.16;5025821;28;19995;-38
2023/04/10 00:46:25;;;;;;;;;;;;;;;5.84;98.17;93478.84;5020067;28;19924;-37
2023/04/10 00:48:51;;;;;;;;;;;;;;;5.73;99.66;93480.94;5028080;28;20407;-38
2023/04/10 00:51:18;;;;;;;;;;;;;;;5.80;99.24;93478.38;5030901;28;20007;-38
2023/04/10 00:53:44;;;;;;;;;;;;;;;5.98;97.78;93477.66;5028279;28;19964;-38
2023/04/10 00:56:09;;;;;;;;;;;;;;;5.99;97.43;93484.63;5029884;28;19919;-38
2023/04/10 00:58:34;;;;;;;;;;;;;;;5.85;97.62;93480.31;5067146;28;19921;-38
2023/04/10 01:01:00;;;;;;;;;;;;;;;5.78;98.25;93475.38;5027789;28;19913;-38
2023/04/10 01:03:26;;;;;;;;;;;;;;;5.79;98.28;93474.13;5024010;28;19917;-38
2023/04/10 01:05:57;;;;;;;;;;;;;;;5.80;98.57;93477.63;5061606;28;20710;-37
2023/04/10 01:08:25;;;;;;;;;;;;;;;5.86;97.60;93470.84;5057789;28;19974;-38
2023/04/10 01:10:55;;;;;;;;;;;;;;;5.77;98.78;93471.16;5053125;28;19914;-37
2023/04/10 01:13:22;;;;;;;;;;;;;;;5.78;98.45;93475.38;5027607;28;20346;-37
2023/04/10 01:16:06;;;;;;;;;;;;;;;5.58;100.00;93469.66;5059985;28;19955;-38
2023/04/10 01:18:37;;;;;;;;;;;;;;;5.62;100.00;93470.84;5021278;28;19926;-38
2023/04/10 01:21:04;;;;;;;;;;;;;;;5.75;100.00;93464.72;5028510;28;19920;-37
2023/04/10 01:23:47;;;;;;;;;;;;;;;5.83;99.24;93462.88;5058532;28;20003;-37
2023/04/10 01:26:16;;;;;;;;;;;;;;;5.87;98.39;93463.34;5028390;28;19928;-38
2023/04/10 01:28:44;;;;;;;;;;;;;;;5.74;98.83;93455.03;5035837;28;19917;-38
2023/04/10 01:31:10;;;;;;;;;;;;;;;5.59;100.00;93457.47;5025472;28;20397;-37
2023/04/10 01:33:44;;;;;;;;;;;;;;;5.63;99.92;93455.16;5023931;28;19917;-37
2023/04/10 01:36:10;;;;;;;;;;;;;;;5.72;99.19;93466.50;5018791;28;20344;-38
2023/04/10 01:38:35;;;;;;;;;;;;;;;5.73;98.94;93459.78;5060050;28;19927;-38
2023/04/10 01:41:00;;;;;;;;;;;;;;;5.60;99.82;93456.94;5053926;28;19913;-37
2023/04/10 01:43:26;;;;;;;;;;;;;;;5.53;100.00;93449.31;5063026;28;19913;-37
2023/04/10 01:45:51;;;;;;;;;;;;;;;5.46;100.00;93463.56;5061140;28;19946;-37
2023/04/10 01:48:17;;;;;;;;;;;;;;;5.68;100.00;93452.34;5060881;28;19987;-38
2023/04/10 01:50:44;;;;;;;;;;;;;;;5.48;100.00;93461.06;5027606;28;19917;-37
2023/04/10 01:53:09;;;;;;;;;;;;;;;5.48;100.00;93455.56;5026453;28;19920;-38
2023/04/10 01:55:35;;;;;;;;;;;;;;;5.49;100.00;93456.31;5032005;28;19920;-38
2023/04/10 01:58:00;;;;;;;;;;;;;;;5.37;100.00;93455.72;5060528;28;19913;-37
2023/04/10 02:00:26;;;;;;;;;;;;;;;5.38;100.00;93457.94;5061839;28;20403;-38
2023/04/10 02:02:51;;;;;;;;;;;;;;;5.17;100.00;93450.72;5029218;28;19975;-37
2023/04/10 02:05:17;;;;;;;;;;;;;;;5.14;100.00;93443.50;5023580;28;19917;-37
2023/04/10 02:07:50;;;;;;;;;;;;;;;5.15;100.00;93439.53;5032635;28;19928;-37
2023/04/10 02:10:15;;;;;;;;;;;;;;;5.05;100.00;93439.13;5027415;28;20003;-37
2023/04/10 02:12:43;;;;;;;;;;;;;;;4.87;100.00;93426.16;5033431;28;20007;-37
2023/04/10 02:15:08;;;;;;;;;;;;;;;5.00;100.00;93431.72;5023236;28;19928;-38
2023/04/10 02:17:33;;;;;;;;;;;;;;;5.03;100.00;93427.22;5027198;28;19924;-37
2023/04/10 02:19:59;;;;;;;;;;;;;;;4.94;100.00;93428.28;5061287;28;20547;-37
2023/04/10 02:22:24;;;;;;;;;;;;;;;4.98;100.00;93430.75;5060967;28;19917;-37
2023/04/10 02:24:50;;;;;;;;;;;;;;;4.86;100.00;93419.19;5023798;28;19924;-37
2023/04/10 02:27:15;;;;;;;;;;;;;;;4.94;100.00;93422.81;5027480;28;19913;-37
2023/04/10 02:29:40;;;;;;;;;;;;;;;4.81;100.00;93424.72;5026731;28;20381;-37
2023/04/10 02:32:06;;;;;;;;;;;;;;;4.49;100.00;93425.25;5026243;28;19974;-37
2023/04/10 02:34:31;;;;;;;;;;;;;;;4.38;100.00;93416.38;5028580;28;20023;-37
2023/04/10 02:36:56;;;;;;;;;;;;;;;4.40;100.00;93411.13;5022340;28;20298;-38
2023/04/10 02:39:21;;;;;;;;;;;;;;;4.56;100.00;93413.00;5021018;28;19976;-37
2023/04/10 02:41:47;;;;;;;;;;;;;;;4.49;100.00;93411.56;5032646;28;19924;-37
2023/04/10 02:44:12;;;;;;;;;;;;;;;4.32;100.00;93413.69;5033470;28;19920;-37
2023/04/10 02:46:37;;;;;;;;;;;;;;;4.31;100.00;93408.75;5024212;28;20372;-37
2023/04/10 02:49:03;;;;;;;;;;;;;;;4.39;100.00;93410.41;5028405;28;19994;-37
2023/04/10 02:51:28;;;;;;;;;;;;;;;4.22;100.00;93409.78;5014074;28;19921;-37
2023/04/10 02:53:53;;;;;;;;;;;;;;;4.20;100.00;93409.56;5022787;28;20019;-38
2023/04/10 02:56:19;;;;;;;;;;;;;;;4.19;100.00;93418.28;5024060;28;19917;-38
2023/04/10 02:58:46;;;;;;;;;;;;;;;4.27;100.00;93414.47;5022855;28;20302;-38
2023/04/10 03:01:12;;;;;;;;;;;;;;;3.98;100.00;93412.47;5021262;28;19945;-38
2023/04/10 03:03:37;;;;;;;;;;;;;;;3.76;100.00;93416.09;5025470;28;20405;-38
2023/04/10 03:06:02;;;;;;;;;;;;;;;3.63;100.00;93417.88;5018620;28;20356;-38
2023/04/10 03:08:29;;;;;;;;;;;;;;;3.55;100.00;93420.41;5026719;28;19939;-38
2023/04/10 03:10:54;;;;;;;;;;;;;;;3.58;100.00;93424.09;5025271;28;19921;-38
2023/04/10 03:13:20;;;;;;;;;;;;;;;3.65;100.00;93429.03;5023254;28;20626;-38
2023/04/10 03:15:45;;;;;;;;;;;;;;;3.46;100.00;93428.16;5025224;28;19971;-38
2023/04/10 03:18:11;;;;;;;;;;;;;;;3.47;100.00;93429.63;5027177;28;19975;-38
2023/04/10 03:20:37;;;;;;;;;;;;;;;3.39;100.00;93432.16;5017962;28;19925;-38
2023/04/10 03:23:06;;;;;;;;;;;;;;;3.28;100.00;93431.44;5022286;28;20016;-37
2023/04/10 03:25:35;;;;;;;;;;;;;;;3.21;100.00;93434.69;5018024;28;20316;-38
2023/04/10 03:28:00;;;;;;;;;;;;;;;3.19;100.00;93434.44;5020761;28;19961;-38
2023/04/10 03:30:26;;;;;;;;;;;;;;;3.36;100.00;93432.38;5023619;28;19956;-38
2023/04/10 03:32:51;;;;;;;;;;;;;;;3.28;100.00;93436.91;5024919;28;19913;-38
2023/04/10 03:35:16;;;;;;;;;;;;;;;3.10;100.00;93432.75;5020945;28;19917;-38
2023/04/10 03:37:42;;;;;;;;;;;;;;;3.39;100.00;93429.41;5023469;28;20384;-38
2023/04/10 03:40:08;;;;;;;;;;;;;;;3.42;100.00;93428.41;5027801;28;19963;-38
2023/04/10 03:42:34;;;;;;;;;;;;;;;3.05;100.00;93428.78;5025800;28;19916;-37
2023/04/10 03:45:01;;;;;;;;;;;;;;;3.05;100.00;93425.34;5027283;28;19923;-38
2023/04/10 03:47:26;;;;;;;;;;;;;;;3.13;100.00;93431.75;5030984;28;19917;-37
2023/04/10 03:49:52;;;;;;;;;;;;;;;3.20;100.00;93431.22;5020163;28;19925;-38
2023/04/10 03:52:17;;;;;;;;;;;;;;;3.10;100.00;93440.19;5018572;28;20012;-38
2023/04/10 03:54:42;;;;;;;;;;;;;;;2.95;100.00;93437.75;5026396;28;20324;-38
2023/04/10 03:57:07;;;;;;;;;;;;;;;2.90;100.00;93439.22;5030550;28;19949;-38
2023/04/10 03:59:33;;;;;;;;;;;;;;;2.85;100.00;93431.84;5026657;28;20612;-38
2023/04/10 04:01:58;;;;;;;;;;;;;;;2.98;100.00;93439.47;5027145;28;19975;-38
2023/04/10 04:04:24;;;;;;;;;;;;;;;2.94;100.00;93436.28;5022771;28;19928;-38
2023/04/10 04:06:50;;;;;;;;;;;;;;;2.86;100.00;93438.75;5025093;28;19917;-38
2023/04/10 04:09:15;;;;;;;;;;;;;;;2.92;100.00;93444.22;5055703;28;19918;-38
2023/04/10 04:11:41;;;;;;;;;;;;;;;3.13;100.00;93439.94;5034652;28;19920;-37
2023/04/10 04:14:06;;;;;;;;;;;;;;;3.16;100.00;93440.91;5029042;28;19916;-37
2023/04/10 04:16:32;;;;;;;;;;;;;;;3.24;100.00;93436.41;5025177;28;19921;-37
2023/04/10 04:18:57;;;;;;;;;;;;;;;3.49;100.00;93444.25;5027955;28;19921;-38
2023/04/10 04:21:22;;;;;;;;;;;;;;;3.40;100.00;93446.53;5021081;28;19913;-38
2023/04/10 04:23:47;;;;;;;;;;;;;;;3.35;100.00;93450.03;5018723;28;19917;-37
2023/04/10 04:26:13;;;;;;;;;;;;;;;3.08;100.00;93446.88;5020984;28;20399;-37
2023/04/10 04:28:38;;;;;;;;;;;;;;;3.16;100.00;93454.56;5028173;28;19921;-37
2023/04/10 04:31:03;;;;;;;;;;;;;;;3.19;100.00;93450.81;5021998;28;20181;-38
2023/04/10 04:33:28;;;;;;;;;;;;;;;3.36;100.00;93448.75;5021732;28;20003;-38
2023/04/10 04:35:55;;;;;;;;;;;;;;;3.24;100.00;93456.25;5026749;28;20015;-37
2023/04/10 04:38:20;;;;;;;;;;;;;;;3.40;100.00;93455.44;5028156;28;19913;-38
2023/04/10 04:40:46;;;;;;;;;;;;;;;3.53;100.00;93447.44;5019283;28;19925;-38
2023/04/10 04:43:11;;;;;;;;;;;;;;;3.66;100.00;93455.84;5026129;28;19913;-38
2023/04/10 04:45:36;;;;;;;;;;;;;;;3.75;100.00;93450.09;5024997;28;19924;-38
2023/04/10 04:48:01;;;;;;;;;;;;;;;3.73;100.00;93449.09;5026136;28;20411;-38
2023/04/10 04:50:27;;;;;;;;;;;;;;;3.83;100.00;93450.31;5023123;28;19918;-37
2023/04/10 04:52:52;;;;;;;;;;;;;;;3.77;100.00;93444.09;5029709;28;19921;-37
2023/04/10 04:55:17;;;;;;;;;;;;;;;3.81;100.00;93452.81;5031330;28;19917;-37
2023/04/10 04:57:43;;;;;;;;;;;;;;;4.00;100.00;93453.69;5028334;28;20436;-38
2023/04/10 05:00:08;;;;;;;;;;;;;;;4.13;99.45;93459.31;5031800;28;19913;-37
2023/04/10 05:02:33;;;;;;;;;;;;;;;4.20;98.69;93450.53;5038726;28;20708;-37
2023/04/10 05:04:59;;;;;;;;;;;;;;;4.00;100.00;93450.94;5030313;28;19925;-37
2023/04/10 05:07:24;;;;;;;;;;;;;;;4.18;100.00;93453.03;5031209;28;19924;-37
2023/04/10 05:09:50;;;;;;;;;;;;;;;4.15;100.00;93450.59;5029516;28;20020;-37
2023/04/10 05:12:15;;;;;;;;;;;;;;;4.11;100.00;93459.06;5025141;28;19924;-38
2023/04/10 05:14:41;;;;;;;;;;;;;;;4.13;100.00;93453.84;5029034;28;20428;-37
2023/04/10 05:17:06;;;;;;;;;;;;;;;4.10;100.00;93459.56;5026403;28;19924;-37
2023/04/10 05:19:31;;;;;;;;;;;;;;;4.16;100.00;93454.81;5027834;28;20456;-37
2023/04/10 05:21:56;;;;;;;;;;;;;;;4.36;100.00;93460.63;5031838;28;20639;-38
2023/04/10 05:24:22;;;;;;;;;;;;;;;4.57;100.00;93458.97;5025845;28;20038;-37
2023/04/10 05:26:47;;;;;;;;;;;;;;;4.68;100.00;93451.94;5034869;28;19917;-37
2023/04/10 05:29:12;;;;;;;;;;;;;;;4.81;100.00;93450.06;5024814;28;20309;-37
2023/04/10 05:31:37;;;;;;;;;;;;;;;4.95;100.00;93448.19;5027112;28;19982;-38
2023/04/10 05:34:03;;;;;;;;;;;;;;;5.03;100.00;93451.84;5030649;28;20027;-37
2023/04/10 05:36:28;;;;;;;;;;;;;;;5.12;100.00;93470.66;5029064;28;19917;-37
2023/04/10 05:38:53;;;;;;;;;;;;;;;5.14;100.00;93459.94;5032444;28;20030;-38
2023/04/10 05:41:19;;;;;;;;;;;;;;;5.28;98.81;93465.00;5031244;28;19931;-38
2023/04/10 05:43:44;;;;;;;;;;;;;;;5.24;99.29;93459.06;5026239;28;19929;-38
2023/04/10 05:46:10;;;;;;;;;;;;;;;5.22;99.50;93467.06;5024202;28;19928;-38
2023/04/10 05:48:35;;;;;;;;;;;;;;;5.27;100.00;93462.78;5029835;28;19933;-38
2023/04/10 05:51:01;;;;;;;;;;;;;;;5.30;100.00;93464.50;5028896;28;19924;-38
2023/04/10 05:53:30;;;;;;;;;;;;;;;5.16;100.00;93441.00;5032082;28;20388;-38
2023/04/10 05:55:56;;;;;;;;;;;;;;;5.45;100.00;93455.88;5040691;28;19949;-38
2023/04/10 05:58:21;;;;;;;;;;;;;;;5.63;100.00;93455.16;5023382;28;20000;-38
2023/04/10 06:00:46;;;;;;;;;;;;;;;5.54;100.00;93458.25;5026014;28;19921;-38
2023/04/10 06:03:11;;;;;;;;;;;;;;;5.62;100.00;93451.69;5026169;28;19990;-38
2023/04/10 06:05:37;;;;;;;;;;;;;;;5.80;100.00;93459.19;5032926;28;20373;-38
2023/04/10 06:08:02;;;;;;;;;;;;;;;5.96;100.00;93452.03;5054530;28;19929;-38
2023/04/10 06:10:31;;;;;;;;;;;;;;;5.95;100.00;93462.25;5032764;28;20389;-38
2023/04/10 06:12:56;;;;;;;;;;;;;;;6.16;100.00;93456.97;5024108;28;19921;-38
2023/04/10 06:15:21;;;;;;;;;;;;;;;6.10;100.00;93453.59;5027356;28;19975;-38
2023/04/10 06:17:46;;;;;;;;;;;;;;;6.03;100.00;93456.91;5022836;28;19921;-38
2023/04/10 06:20:12;;;;;;;;;;;;;;;6.07;99.48;93460.84;5021859;28;19967;-38
2023/04/10 06:22:37;;;;;;;;;;;;;;;6.01;97.13;93468.41;5031212;28;20710;-38
2023/04/10 06:25:04;;;;;;;;;;;;;;;6.12;93.78;93462.03;5021466;28;19925;-38
2023/04/10 06:27:29;;;;;;;;;;;;;;;6.22;89.91;93462.38;5027709;28;19937;-38
2023/04/10 06:29:54;;;;;;;;;;;;;;;6.16;92.16;93462.47;5021933;28;19932;-38
2023/04/10 06:32:20;;;;;;;;;;;;;;;6.13;90.42;93457.28;5032084;28;19921;-38
2023/04/10 06:34:46;;;;;;;;;;;;;;;6.09;89.46;93455.56;5019317;28;19925;-38
2023/04/10 06:37:11;;;;;;;;;;;;;;;6.17;86.84;93463.22;5023550;28;19925;-38
2023/04/10 06:39:36;;;;;;;;;;;;;;;6.10;87.72;93459.81;5020037;28;20026;-38
2023/04/10 06:42:02;;;;;;;;;;;;;;;6.13;87.47;93464.25;5023624;28;20015;-38
2023/04/10 06:44:27;;;;;;;;;;;;;;;6.16;87.96;93465.19;5016972;28;19921;-38
2023/04/10 06:46:52;;;;;;;;;;;;;;;6.28;89.32;93463.06;5014930;28;19917;-37
2023/04/10 06:49:18;;;;;;;;;;;;;;;6.29;88.42;93462.53;5018972;28;19925;-38
2023/04/10 06:51:44;;;;;;;;;;;;;;;6.64;86.20;93464.25;5018413;28;19948;-38
2023/04/10 06:54:10;;;;;;;;;;;;;;;6.68;84.55;93472.91;5019285;28;19921;-43
2023/04/10 06:56:35;;;;;;;;;;;;;;;7.00;85.40;93473.63;5013550;28;20531;-43
2023/04/10 06:59:00;;;;;;;;;;;;;;;7.25;84.08;93474.94;5017476;28;19986;-38
2023/04/10 07:01:25;;;;;;;;;;;;;;;7.50;83.61;93476.22;5019003;28;19925;-38
2023/04/10 07:03:51;;;;;;;;;;;;;;;7.59;81.76;93481.28;5018599;28;19970;-38
2023/04/10 07:06:16;;;;;;;;;;;;;;;7.68;81.04;93482.13;5022333;28;19917;-38
2023/04/10 07:08:41;;;;;;;;;;;;;;;7.48;77.05;93478.00;5016296;28;19924;-38
2023/04/10 07:11:06;;;;;;;;;;;;;;;7.39;79.26;93479.16;5021683;28;19923;-38
2023/04/10 07:13:34;;;;;;;;;;;;;;;7.23;80.22;93477.47;5024465;28;19928;-38
2023/04/10 07:15:59;;;;;;;;;;;;;;;7.15;78.32;93468.38;5019268;28;19979;-38
2023/04/10 07:18:24;;;;;;;;;;;;;;;7.15;80.01;93473.09;5021597;28;19921;-38
2023/04/10 07:20:50;;;;;;;;;;;;;;;7.30;78.17;93479.56;5016851;28;20483;-38
2023/04/10 07:23:15;;;;;;;;;;;;;;;7.45;78.45;93471.56;5020951;28;20027;-38
2023/04/10 07:25:41;;;;;;;;;;;;;;;7.34;77.96;93477.25;5023136;28;20539;-38
2023/04/10 07:28:06;;;;;;;;;;;;;;;7.47;78.64;93473.78;5022075;28;19983;-39
2023/04/10 07:30:31;;;;;;;;;;;;;;;7.67;80.15;93480.66;5021711;28;19921;-39
2023/04/10 07:32:57;;;;;;;;;;;;;;;7.63;79.68;93473.47;5026750;28;20007;-38
2023/04/10 07:35:22;;;;;;;;;;;;;;;7.67;77.42;93480.66;5027544;28;19979;-38
2023/04/10 07:37:50;;;;;;;;;;;;;;;7.84;78.26;93479.03;5025260;28;19917;-38
2023/04/10 07:40:16;;;;;;;;;;;;;;;7.80;75.47;93475.88;5026671;28;19964;-38
2023/04/10 07:42:41;;;;;;;;;;;;;;;7.76;77.81;93477.47;5030337;28;19993;-38
2023/04/10 07:45:07;;;;;;;;;;;;;;;7.65;75.43;93470.19;5027329;28;19917;-38
2023/04/10 07:47:32;;;;;;;;;;;;;;;7.69;76.21;93475.38;5020810;28;19928;-38
2023/04/10 07:49:57;;;;;;;;;;;;;;;7.83;75.62;93472.09;5015114;28;20028;-38
2023/04/10 07:52:23;;;;;;;;;;;;;;;7.87;76.51;93471.75;5022043;28;19913;-39
2023/04/10 07:54:48;;;;;;;;;;;;;;;7.68;73.65;93474.63;5025826;28;19921;-39
2023/04/10 07:57:13;;;;;;;;;;;;;;;7.56;72.57;93482.34;5027786;28;19921;-39
2023/04/10 07:59:39;;;;;;;;;;;;;;;7.40;74.52;93479.91;5025883;28;20108;-39
2023/04/10 08:02:04;;;;;;;;;;;;;;;7.31;73.86;93477.56;5019441;28;20484;-39
2023/04/10 08:04:29;;;;;;;;;;;;;;;7.14;75.03;93480.63;5028179;28;19920;-39
2023/04/10 08:06:55;;;;;;;;;;;;;;;7.17;76.34;93479.56;5026490;28;19956;-39
2023/04/10 08:09:20;;;;;;;;;;;;;;;6.88;74.27;93488.81;5030945;28;20373;-39
2023/04/10 08:11:45;;;;;;;;;;;;;;;7.00;75.63;93487.34;5029248;28;19924;-39
2023/04/10 08:14:12;;;;;;;;;;;;;;;6.92;75.12;93489.22;5022023;28;19921;-38
2023/04/10 08:16:38;;;;;;;;;;;;;;;7.07;75.98;93488.72;5023761;28;19924;-39
2023/04/10 08:19:03;;;;;;;;;;;;;;;7.09;76.46;93492.44;5032964;28;19927;-40
2023/04/10 08:21:29;;;;;;;;;;;;;;;7.31;74.60;93492.06;5026201;28;20382;-39
2023/04/10 08:23:55;;;;;;;;;;;;;;;7.66;78.22;93488.16;5027755;28;20465;-38
2023/04/10 08:26:20;;;;;;;;;;;;;;;7.86;75.50;93487.50;5029557;28;20443;-38
2023/04/10 08:28:50;;;;;;;;;;;;;;;7.80;72.11;93484.13;5030769;28;19925;-38
2023/04/10 08:31:18;;;;;;;;;;;;;;;8.04;71.52;93488.66;5028893;28;19960;-38
2023/04/10 08:33:44;;;;;;;;;;;;;;;8.02;73.82;93482.94;5055841;28;19928;-38
2023/04/10 08:36:09;;;;;;;;;;;;;;;7.82;72.86;93483.63;5028475;28;19917;-38
2023/04/10 08:38:34;;;;;;;;;;;;;;;7.54;73.43;93486.88;5030326;28;20004;-38
2023/04/10 08:41:00;;;;;;;;;;;;;;;7.51;74.89;93485.91;5027228;28;19971;-39
2023/04/10 08:43:25;;;;;;;;;;;;;;;7.32;75.10;93488.03;5027301;28;20748;-39
2023/04/10 08:45:51;;;;;;;;;;;;;;;6.99;79.16;93485.13;5021483;28;19921;-39
2023/04/10 08:48:16;;;;;;;;;;;;;;;7.08;83.97;93482.72;5022993;28;20549;-39
2023/04/10 08:50:42;;;;;;;;;;;;;;;7.34;80.68;93485.50;5029614;28;19971;-39
2023/04/10 08:53:08;;;;;;;;;;;;;;;7.35;82.82;93481.50;5065048;28;20372;-39
2023/04/10 08:55:33;;;;;;;;;;;;;;;7.70;81.28;93476.84;5035826;28;19924;-39
2023/04/10 08:57:59;;;;;;;;;;;;;;;8.15;81.75;93471.91;5030032;28;19943;-38
2023/04/10 09:00:24;;;;;;;;;;;;;;;8.11;79.13;93469.50;5030070;28;19928;-39
2023/04/10 09:02:54;;;;;;;;;;;;;;;8.01;80.77;93473.94;5029212;28;20467;-38
2023/04/10 09:05:19;;;;;;;;;;;;;;;7.83;81.05;93469.34;5063020;28;19924;-39
2023/04/10 09:07:44;;;;;;;;;;;;;;;7.65;80.07;93470.19;5017549;28;19928;-39
2023/04/10 09:10:09;;;;;;;;;;;;;;;7.59;85.97;93464.06;5026696;28;20397;-39
2023/04/10 09:12:45;;;;;;;;;;;;;;;7.21;81.48;93458.03;5032711;28;20388;-38
2023/04/10 09:15:10;;;;;;;;;;;;;;;7.17;82.82;93456.88;5025373;28;19963;-39
2023/04/10 09:17:36;;;;;;;;;;;;;;;7.22;83.25;93454.03;5048981;28;19957;-38
2023/04/10 09:20:01;;;;;;;;;;;;;;;7.28;86.62;93460.16;5022222;28;19946;-39
2023/04/10 09:22:33;;;;;;;;;;;;;;;7.38;84.63;93458.47;5023726;28;19921;-39
2023/04/10 09:24:59;;;;;;;;;;;;;;;7.61;81.56;93453.28;5028469;28;20671;-38
2023/04/10 09:27:31;;;;;;;;;;;;;;;7.75;80.07;93452.03;5027693;28;19925;-39
2023/04/10 09:29:56;;;;;;;;;;;;;;;7.84;79.51;93445.34;5029537;28;19921;-38
2023/04/10 09:32:38;;;;;;;;;;;;;;;7.97;77.59;93442.56;5025114;28;19921;-39
2023/04/10 09:35:04;;;;;;;;;;;;;;;8.21;82.80;93439.53;5032720;28;19921;-39
2023/04/10 09:37:33;;;;;;;;;;;;;;;8.14;76.58;93448.44;5032073;28;19920;-39
2023/04/10 09:39:58;;;;;;;;;;;;;;;8.04;77.94;93442.66;5022728;28;20568;-39
2023/04/10 09:42:36;;;;;;;;;;;;;;;7.92;77.76;93446.16;5034238;28;19923;-39
2023/04/10 09:45:02;;;;;;;;;;;;;;;7.97;78.79;93439.81;5025639;28;19921;-38
2023/04/10 09:47:27;;;;;;;;;;;;;;;8.04;83.26;93431.66;5026597;28;19922;-38
2023/04/10 09:49:53;;;;;;;;;;;;;;;8.11;79.30;93435.75;5026682;28;20020;-38
2023/04/10 09:52:20;;;;;;;;;;;;;;;8.19;78.69;93434.56;5033145;28;19917;-38
2023/04/10 09:54:45;;;;;;;;;;;;;;;8.77;78.21;93428.03;5036978;28;21387;-39
2023/04/10 09:57:12;;;;;;;;;;;;;;;9.60;76.31;93423.09;5029883;28;19960;-39
2023/04/10 09:59:38;;;;;;;;;;;;;;;11.11;75.84;93412.50;5029814;28;19921;-39
2023/04/10 10:02:03;;;;;;;;;;;;;;;13.35;66.83;93400.28;5023008;28;20468;-39
2023/04/10 10:04:28;;;;;;;;;;;;;;;13.89;55.36;93392.16;5029451;28;19921;-39
2023/04/10 10:06:54;;;;;;;;;;;;;;;13.32;57.77;93387.53;5018450;28;19932;-39
2023/04/10 10:09:19;;;;;;;;;;;;;;;12.45;57.98;93393.31;5023064;28;20481;-39
2023/04/10 10:11:45;;;;;;;;;;;;;;;11.29;58.40;93405.84;5022197;28;19924;-39
2023/04/10 10:14:12;;;;;;;;;;;;;;;10.16;62.24;93408.47;5022238;28;19925;-38
2023/04/10 10:16:56;;;;;;;;;;;;;;;9.61;63.00;93410.78;5054695;28;19963;-39
2023/04/10 10:19:30;;;;;;;;;;;;;;;9.79;66.16;93407.00;5058790;28;19928;-38
2023/04/10 10:21:55;;;;;;;;;;;;;;;8.93;62.81;93400.06;5046749;28;19921;-39
2023/04/10 10:24:20;;;;;;;;;;;;;;;8.60;65.74;93402.91;5027871;28;19922;-39
2023/04/10 10:26:46;;;;;;;;;;;;;;;8.63;65.80;93402.56;5016872;28;19932;-39
2023/04/10 10:29:12;;;;;;;;;;;;;;;8.82;66.97;93405.09;5022961;28;19947;-38
2023/04/10 10:31:38;;;;;;;;;;;;;;;8.68;66.03;93414.72;5019114;28;19925;-38
2023/04/10 10:34:05;;;;;;;;;;;;;;;8.78;68.20;93405.47;5057938;28;19947;-38
2023/04/10 10:36:31;;;;;;;;;;;;;;;9.08;67.39;93402.94;5026647;28;19920;-38
2023/04/10 10:39:16;;;;;;;;;;;;;;;9.20;67.64;93397.13;5032881;28;19920;-39
2023/04/10 10:42:00;;;;;;;;;;;;;;;9.11;65.61;93396.34;5025563;28;19921;-39
2023/04/10 10:44:32;;;;;;;;;;;;;;;9.20;65.28;93394.38;5027780;28;19931;-39
2023/04/10 10:47:00;;;;;;;;;;;;;;;9.01;64.37;93392.59;5030900;28;19917;-39
2023/04/10 10:49:48;;;;;;;;;;;;;;;9.21;65.85;93390.34;5060180;28;19932;-38
2023/04/10 10:52:14;;;;;;;;;;;;;;;9.09;68.70;93392.66;5034329;28;20408;-39
2023/04/10 10:54:39;;;;;;;;;;;;;;;9.14;71.28;93389.00;5022695;28;20007;-39
2023/04/10 10:57:08;;;;;;;;;;;;;;;9.23;73.07;93399.53;5024828;28;19923;-39
2023/04/10 10:59:42;;;;;;;;;;;;;;;9.09;75.21;93396.16;5055606;28;19991;-39
2023/04/10 11:02:17;;;;;;;;;;;;;;;8.98;75.56;93387.44;5024484;28;20320;-39
2023/04/10 11:04:45;;;;;;;;;;;;;;;9.15;78.20;93385.72;5022017;28;19929;-37
2023/04/10 11:07:12;;;;;;;;;;;;;;;9.47;77.52;93377.09;5027369;28;19928;-39
2023/04/10 11:09:53;;;;;;;;;;;;;;;9.92;75.06;93360.00;5027214;28;19921;-37
2023/04/10 11:12:20;;;;;;;;;;;;;;;10.36;73.42;93357.94;5025009;28;19929;-37
2023/04/10 11:14:55;;;;;;;;;;;;;;;10.73;67.04;93362.03;5027431;28;20024;-39
2023/04/10 11:17:39;;;;;;;;;;;;;;;11.51;69.39;93360.09;5031859;28;20394;-37
2023/04/10 11:20:04;;;;;;;;;;;;;;;11.39;65.19;93357.00;5055322;28;20523;-39
2023/04/10 11:22:30;;;;;;;;;;;;;;;11.28;64.30;93349.09;5026194;28;20016;-39
2023/04/10 11:24:58;;;;;;;;;;;;;;;10.97;63.60;93333.84;5061341;28;20645;-39
2023/04/10 11:27:40;;;;;;;;;;;;;;;11.22;65.96;93340.25;5024854;28;19928;-40
2023/04/10 11:30:35;;;;;;;;;;;;;;;12.33;57.80;93338.94;5019323;28;19976;-40
2023/04/10 11:33:01;;;;;;;;;;;;;;;13.60;57.07;93333.63;5029651;28;20076;-39
2023/04/10 11:35:27;;;;;;;;;;;;;;;14.04;51.56;93312.22;5028894;28;20422;-38
2023/04/10 11:38:11;;;;;;;;;;;;;;;13.98;52.92;93305.44;5024506;28;19932;-39
2023/04/10 11:40:51;;;;;;;;;;;;;;;13.21;51.02;93302.06;5028958;28;19921;-39
2023/04/10 11:43:17;;;;;;;;;;;;;;;12.48;49.78;93311.16;5030188;28;19924;-39
2023/04/10 11:45:42;;;;;;;;;;;;;;;13.06;53.35;93307.75;5032619;28;19917;-38
2023/04/10 11:48:08;;;;;;;;;;;;;;;12.78;52.63;93308.16;5030212;28;20366;-39
2023/04/10 11:50:34;;;;;;;;;;;;;;;12.60;51.99;93306.66;5062713;28;20011;-38
2023/04/10 11:53:00;;;;;;;;;;;;;;;11.72;52.29;93299.75;5027344;28;20413;-39
2023/04/10 11:55:38;;;;;;;;;;;;;;;11.69;51.82;93303.66;5031471;28;19943;-38
2023/04/10 11:58:03;;;;;;;;;;;;;;;10.89;53.82;93295.22;5025089;28;19921;-38
2023/04/10 12:00:28;;;;;;;;;;;;;;;11.29;53.10;93300.81;5027048;28;20018;-38
2023/04/10 12:02:54;;;;;;;;;;;;;;;10.85;54.83;93283.78;5027276;28;19987;-38
2023/04/10 12:05:19;;;;;;;;;;;;;;;11.15;56.28;93294.75;5032110;28;19928;-38
2023/04/10 12:07:45;;;;;;;;;;;;;;;12.20;58.74;93292.88;5030982;28;19917;-39
2023/04/10 12:10:10;;;;;;;;;;;;;;;12.65;52.29;93286.28;5020271;28;19996;-39
2023/04/10 12:12:35;;;;;;;;;;;;;;;12.84;57.18;93289.28;5035244;28;19919;-39
2023/04/10 12:15:01;;;;;;;;;;;;;;;12.01;55.05;93285.06;5031103;28;20390;-38
2023/04/10 12:17:27;;;;;;;;;;;;;;;11.99;54.33;93284.91;5025552;28;20421;-39
2023/04/10 12:19:52;;;;;;;;;;;;;;;12.36;53.28;93277.66;5024736;28;19921;-39
2023/04/10 12:22:17;;;;;;;;;;;;;;;11.73;54.42;93282.63;5062833;28;20112;-39
2023/04/10 12:24:43;;;;;;;;;;;;;;;11.28;53.01;93280.00;5068364;28;20424;-39
2023/04/10 12:27:19;;;;;;;;;;;;;;;11.43;52.91;93275.16;5029553;28;19921;-39
2023/04/10 12:29:45;;;;;;;;;;;;;;;11.27;52.99;93273.75;5022532;28;19933;-38
2023/04/10 12:32:10;;;;;;;;;;;;;;;12.04;54.22;93277.69;5023881;28;20294;-39
2023/04/10 12:34:36;;;;;;;;;;;;;;;11.98;53.40;93268.84;5030063;28;20353;-39
2023/04/10 12:37:02;;;;;;;;;;;;;;;11.87;52.23;93269.25;5030516;28;19924;-39
2023/04/10 12:39:27;;;;;;;;;;;;;;;12.69;55.22;93267.25;5043585;28;19923;-39
2023/04/10 12:41:52;;;;;;;;;;;;;;;12.92;55.04;93276.81;5027799;28;20024;-38
2023/04/10 12:44:19;;;;;;;;;;;;;;;11.02;54.80;93277.69;5050601;28;19925;-39
2023/04/10 12:46:44;;;;;;;;;;;;;;;10.56;57.08;93283.25;5023397;28;20023;-39
2023/04/10 12:49:14;;;;;;;;;;;;;;;10.25;57.85;93292.06;5025080;28;20445;-38